createdAt,value
2017-03-30T00:00:02.855Z,1018.71
2017-03-30T00:00:12.847Z,1018.68
2017-03-30T00:00:22.841Z,1018.67
2017-03-30T00:00:32.833Z,1018.66
2017-03-30T00:00:42.832Z,1018.69
2017-03-30T00:00:52.853Z,1018.68
2017-03-30T00:01:02.821Z,1018.69
2017-03-30T00:01:12.479Z,1018.69
2017-03-30T00:01:22.808Z,1018.72
2017-03-30T00:01:33.169Z,1018.71
2017-03-30T00:01:42.796Z,1018.67
2017-03-30T00:01:52.794Z,1018.68
2017-03-30T00:02:02.456Z,1018.68
2017-03-30T00:02:12.444Z,1018.69
2017-03-30T00:02:22.773Z,1018.67
2017-03-30T00:02:32.772Z,1018.7
2017-03-30T00:02:42.761Z,1018.67
2017-03-30T00:02:52.760Z,1018.62
2017-03-30T00:03:02.755Z,1018.7
2017-03-30T00:03:12.751Z,1018.68
2017-03-30T00:03:22.411Z,1018.69
2017-03-30T00:03:32.740Z,1018.65
2017-03-30T00:03:42.732Z,1018.7
2017-03-30T00:03:52.727Z,1018.66
2017-03-30T00:04:02.390Z,1018.66
2017-03-30T00:04:12.633Z,1018.72
2017-03-30T00:04:22.709Z,1018.7
2017-03-30T00:04:32.743Z,1018.69
2017-03-30T00:04:42.699Z,1018.69
2017-03-30T00:04:52.359Z,1018.64
2017-03-30T00:05:02.691Z,1018.69
2017-03-30T00:05:12.349Z,1018.71
2017-03-30T00:05:22.678Z,1018.71
2017-03-30T00:05:32.670Z,1018.65
2017-03-30T00:05:42.668Z,1018.67
2017-03-30T00:05:52.662Z,1018.7
2017-03-30T00:06:02.655Z,1018.72
2017-03-30T00:06:12.314Z,1018.71
2017-03-30T00:06:23.003Z,1018.72
2017-03-30T00:06:32.638Z,1018.71
2017-03-30T00:06:42.632Z,1018.7
2017-03-30T00:06:52.627Z,1018.74
2017-03-30T00:07:02.622Z,1018.73
2017-03-30T00:07:12.282Z,1018.69
2017-03-30T00:07:22.278Z,1018.69
2017-03-30T00:07:32.612Z,1018.71
2017-03-30T00:07:42.267Z,1018.71
2017-03-30T00:07:52.948Z,1018.68
2017-03-30T00:08:02.260Z,1018.69
2017-03-30T00:08:12.586Z,1018.67
2017-03-30T00:08:21.910Z,1018.66
2017-03-30T00:08:32.576Z,1018.67
2017-03-30T00:08:42.566Z,1018.63
2017-03-30T00:08:52.566Z,1018.68
2017-03-30T00:09:02.558Z,1018.71
2017-03-30T00:09:12.804Z,1018.66
2017-03-30T00:09:22.549Z,1018.73
2017-03-30T00:09:32.542Z,1018.66
2017-03-30T00:09:42.536Z,1018.65
2017-03-30T00:09:52.533Z,1018.68
2017-03-30T00:10:02.524Z,1018.7
2017-03-30T00:10:12.522Z,1018.67
2017-03-30T00:10:22.513Z,1018.66
2017-03-30T00:10:32.507Z,1018.61
2017-03-30T00:10:42.503Z,1018.65
2017-03-30T00:10:52.498Z,1018.63
2017-03-30T00:11:02.493Z,1018.68
2017-03-30T00:11:12.490Z,1018.65
2017-03-30T00:11:22.483Z,1018.72
2017-03-30T00:11:32.145Z,1018.65
2017-03-30T00:11:42.823Z,1018.66
2017-03-30T00:11:52.465Z,1018.65
2017-03-30T00:12:02.833Z,1018.65
2017-03-30T00:12:12.458Z,1018.66
2017-03-30T00:12:22.451Z,1018.72
2017-03-30T00:12:32.442Z,1018.69
2017-03-30T00:12:42.438Z,1018.7
2017-03-30T00:12:52.105Z,1018.66
2017-03-30T00:13:02.428Z,1018.69
2017-03-30T00:13:12.422Z,1018.64
2017-03-30T00:13:22.418Z,1018.66
2017-03-30T00:13:32.442Z,1018.61
2017-03-30T00:13:42.405Z,1018.67
2017-03-30T00:13:52.402Z,1018.68
2017-03-30T00:14:02.393Z,1018.69
2017-03-30T00:14:12.690Z,1018.68
2017-03-30T00:14:22.383Z,1018.67
2017-03-30T00:14:32.381Z,1018.65
2017-03-30T00:14:42.371Z,1018.69
2017-03-30T00:14:52.369Z,1018.63
2017-03-30T00:15:02.362Z,1018.64
2017-03-30T00:15:12.358Z,1018.65
2017-03-30T00:15:22.352Z,1018.68
2017-03-30T00:15:32.347Z,1018.66
2017-03-30T00:15:42.342Z,1018.64
2017-03-30T00:15:52.335Z,1018.66
2017-03-30T00:16:02.329Z,1018.66
2017-03-30T00:16:12.324Z,1018.65
2017-03-30T00:16:22.321Z,1018.65
2017-03-30T00:16:31.981Z,1018.7
2017-03-30T00:16:42.310Z,1018.63
2017-03-30T00:16:52.303Z,1018.66
2017-03-30T00:17:02.299Z,1018.64
2017-03-30T00:17:12.290Z,1018.66
2017-03-30T00:17:22.310Z,1018.68
2017-03-30T00:17:32.281Z,1018.66
2017-03-30T00:17:41.942Z,1018.64
2017-03-30T00:17:52.273Z,1018.61
2017-03-30T00:18:02.267Z,1018.62
2017-03-30T00:18:12.259Z,1018.68
2017-03-30T00:18:22.612Z,1018.68
2017-03-30T00:18:31.913Z,1018.63
2017-03-30T00:18:41.909Z,1018.6
2017-03-30T00:18:52.234Z,1018.65
2017-03-30T00:19:02.232Z,1018.62
2017-03-30T00:19:12.141Z,1018.61
2017-03-30T00:19:21.885Z,1018.6
2017-03-30T00:19:32.218Z,1018.6
2017-03-30T00:19:41.877Z,1018.61
2017-03-30T00:19:51.868Z,1018.63
2017-03-30T00:20:02.198Z,1018.64
2017-03-30T00:20:12.195Z,1018.59
2017-03-30T00:20:22.188Z,1018.58
2017-03-30T00:20:32.185Z,1018.65
2017-03-30T00:20:41.843Z,1018.59
2017-03-30T00:20:52.171Z,1018.61
2017-03-30T00:21:02.167Z,1018.62
2017-03-30T00:21:11.829Z,1018.63
2017-03-30T00:21:22.157Z,1018.61
2017-03-30T00:21:32.152Z,1018.61
2017-03-30T00:21:42.147Z,1018.64
2017-03-30T00:21:52.144Z,1018.65
2017-03-30T00:22:02.133Z,1018.68
2017-03-30T00:22:12.130Z,1018.62
2017-03-30T00:22:21.789Z,1018.59
2017-03-30T00:22:32.474Z,1018.62
2017-03-30T00:22:42.113Z,1018.65
2017-03-30T00:22:52.109Z,1018.68
2017-03-30T00:23:02.104Z,1018.62
2017-03-30T00:23:12.101Z,1018.57
2017-03-30T00:23:22.094Z,1018.63
2017-03-30T00:23:32.087Z,1018.59
2017-03-30T00:23:42.080Z,1018.63
2017-03-30T00:23:51.740Z,1018.6
2017-03-30T00:24:02.069Z,1018.56
2017-03-30T00:24:12.064Z,1018.58
2017-03-30T00:24:22.057Z,1018.62
2017-03-30T00:24:32.056Z,1018.62
2017-03-30T00:24:42.051Z,1018.62
2017-03-30T00:24:52.039Z,1018.58
2017-03-30T00:25:02.037Z,1018.6
2017-03-30T00:25:12.030Z,1018.57
2017-03-30T00:25:22.066Z,1018.6
2017-03-30T00:25:32.020Z,1018.61
2017-03-30T00:25:41.683Z,1018.6
2017-03-30T00:25:52.012Z,1018.58
2017-03-30T00:26:02.004Z,1018.56
2017-03-30T00:26:12.000Z,1018.58
2017-03-30T00:26:21.994Z,1018.66
2017-03-30T00:26:31.990Z,1018.62
2017-03-30T00:26:41.647Z,1018.63
2017-03-30T00:26:51.975Z,1018.64
2017-03-30T00:27:01.973Z,1018.56
2017-03-30T00:27:11.966Z,1018.58
2017-03-30T00:27:21.628Z,1018.56
2017-03-30T00:27:31.952Z,1018.58
2017-03-30T00:27:41.952Z,1018.53
2017-03-30T00:27:51.945Z,1018.56
2017-03-30T00:28:01.941Z,1018.57
2017-03-30T00:28:11.598Z,1018.6
2017-03-30T00:28:21.591Z,1018.55
2017-03-30T00:28:31.922Z,1018.58
2017-03-30T00:28:41.917Z,1018.57
2017-03-30T00:28:51.913Z,1018.53
2017-03-30T00:29:01.574Z,1018.54
2017-03-30T00:29:11.562Z,1018.56
2017-03-30T00:29:21.894Z,1018.54
2017-03-30T00:29:31.892Z,1018.54
2017-03-30T00:29:41.882Z,1018.52
2017-03-30T00:29:51.878Z,1018.56
2017-03-30T00:30:01.873Z,1018.53
2017-03-30T00:30:11.869Z,1018.56
2017-03-30T00:30:21.865Z,1018.58
2017-03-30T00:30:31.856Z,1018.58
2017-03-30T00:30:41.852Z,1018.55
2017-03-30T00:30:51.846Z,1018.59
2017-03-30T00:31:01.839Z,1018.58
2017-03-30T00:31:11.834Z,1018.56
2017-03-30T00:31:21.831Z,1018.57
2017-03-30T00:31:31.155Z,1018.57
2017-03-30T00:31:41.820Z,1018.58
2017-03-30T00:31:51.481Z,1018.56
2017-03-30T00:32:01.809Z,1018.57
2017-03-30T00:32:11.805Z,1018.61
2017-03-30T00:32:21.466Z,1018.58
2017-03-30T00:32:31.791Z,1018.62
2017-03-30T00:32:41.453Z,1018.59
2017-03-30T00:32:51.780Z,1018.62
2017-03-30T00:33:01.788Z,1018.58
2017-03-30T00:33:11.769Z,1018.61
2017-03-30T00:33:21.764Z,1018.6
2017-03-30T00:33:31.759Z,1018.6
2017-03-30T00:33:41.754Z,1018.6
2017-03-30T00:33:51.750Z,1018.57
2017-03-30T00:34:01.746Z,1018.62
2017-03-30T00:34:11.656Z,1018.62
2017-03-30T00:34:21.731Z,1018.61
2017-03-30T00:34:31.751Z,1018.59
2017-03-30T00:34:41.722Z,1018.58
2017-03-30T00:34:51.715Z,1018.6
2017-03-30T00:35:01.711Z,1018.56
2017-03-30T00:35:11.371Z,1018.59
2017-03-30T00:35:21.367Z,1018.58
2017-03-30T00:35:31.694Z,1018.57
2017-03-30T00:35:41.688Z,1018.6
2017-03-30T00:35:51.681Z,1018.58
2017-03-30T00:36:01.676Z,1018.58
2017-03-30T00:36:11.673Z,1018.58
2017-03-30T00:36:21.666Z,1018.53
2017-03-30T00:36:31.661Z,1018.54
2017-03-30T00:36:41.655Z,1018.55
2017-03-30T00:36:51.650Z,1018.53
2017-03-30T00:37:02.002Z,1018.56
2017-03-30T00:37:11.306Z,1018.59
2017-03-30T00:37:21.306Z,1018.55
2017-03-30T00:37:31.629Z,1018.56
2017-03-30T00:37:41.994Z,1018.58
2017-03-30T00:37:51.281Z,1018.58
2017-03-30T00:38:01.613Z,1018.55
2017-03-30T00:38:11.611Z,1018.61
2017-03-30T00:38:21.602Z,1018.59
2017-03-30T00:38:31.600Z,1018.59
2017-03-30T00:38:41.594Z,1018.56
2017-03-30T00:38:51.586Z,1018.58
2017-03-30T00:39:01.583Z,1018.54
2017-03-30T00:39:11.492Z,1018.57
2017-03-30T00:39:21.234Z,1018.52
2017-03-30T00:39:31.568Z,1018.52
2017-03-30T00:39:41.560Z,1018.55
2017-03-30T00:39:51.555Z,1018.56
2017-03-30T00:40:01.546Z,1018.58
2017-03-30T00:40:11.547Z,1018.56
2017-03-30T00:40:21.539Z,1018.57
2017-03-30T00:40:31.534Z,1018.55
2017-03-30T00:40:41.525Z,1018.51
2017-03-30T00:40:51.548Z,1018.54
2017-03-30T00:41:01.513Z,1018.57
2017-03-30T00:41:11.511Z,1018.53
2017-03-30T00:41:21.506Z,1018.57
2017-03-30T00:41:31.167Z,1018.55
2017-03-30T00:41:41.161Z,1018.52
2017-03-30T00:41:51.154Z,1018.58
2017-03-30T00:42:01.481Z,1018.53
2017-03-30T00:42:11.478Z,1018.55
2017-03-30T00:42:21.136Z,1018.54
2017-03-30T00:42:31.820Z,1018.54
2017-03-30T00:42:41.462Z,1018.58
2017-03-30T00:42:51.456Z,1018.54
2017-03-30T00:43:01.453Z,1018.54
2017-03-30T00:43:11.443Z,1018.53
2017-03-30T00:43:21.441Z,1018.54
2017-03-30T00:43:31.433Z,1018.52
2017-03-30T00:43:41.094Z,1018.52
2017-03-30T00:43:51.423Z,1018.53
2017-03-30T00:44:01.419Z,1018.51
2017-03-30T00:44:11.326Z,1018.52
2017-03-30T00:44:21.408Z,1018.52
2017-03-30T00:44:31.400Z,1018.53
2017-03-30T00:44:41.393Z,1018.55
2017-03-30T00:44:51.392Z,1018.52
2017-03-30T00:45:01.055Z,1018.53
2017-03-30T00:45:11.043Z,1018.52
2017-03-30T00:45:21.376Z,1018.49
2017-03-30T00:45:31.367Z,1018.55
2017-03-30T00:45:41.362Z,1018.55
2017-03-30T00:45:51.025Z,1018.53
2017-03-30T00:46:01.351Z,1018.54
2017-03-30T00:46:11.346Z,1018.54
2017-03-30T00:46:21.345Z,1018.55
2017-03-30T00:46:31.004Z,1018.53
2017-03-30T00:46:41.002Z,1018.53
2017-03-30T00:46:51.326Z,1018.56
2017-03-30T00:47:01.317Z,1018.53
2017-03-30T00:47:10.773Z,1018.52
2017-03-30T00:47:21.308Z,1018.53
2017-03-30T00:47:31.306Z,1018.53
2017-03-30T00:47:40.630Z,1018.57
2017-03-30T00:47:51.293Z,1018.53
2017-03-30T00:48:01.286Z,1018.53
2017-03-30T00:48:11.282Z,1018.5
2017-03-30T00:48:21.281Z,1018.51
2017-03-30T00:48:31.269Z,1018.55
2017-03-30T00:48:41.294Z,1018.5
2017-03-30T00:48:50.927Z,1018.56
2017-03-30T00:49:01.253Z,1018.53
2017-03-30T00:49:11.167Z,1018.52
2017-03-30T00:49:21.250Z,1018.5
2017-03-30T00:49:30.904Z,1018.52
2017-03-30T00:49:41.231Z,1018.56
2017-03-30T00:49:50.896Z,1018.53
2017-03-30T00:50:01.227Z,1018.5
2017-03-30T00:50:11.218Z,1018.5
2017-03-30T00:50:21.565Z,1018.53
2017-03-30T00:50:30.873Z,1018.57
2017-03-30T00:50:41.203Z,1018.53
2017-03-30T00:50:50.861Z,1018.52
2017-03-30T00:51:01.188Z,1018.46
2017-03-30T00:51:10.850Z,1018.52
2017-03-30T00:51:21.179Z,1018.47
2017-03-30T00:51:31.176Z,1018.51
2017-03-30T00:51:41.168Z,1018.51
2017-03-30T00:51:51.161Z,1018.52
2017-03-30T00:52:01.158Z,1018.56
2017-03-30T00:52:11.519Z,1018.52
2017-03-30T00:52:21.147Z,1018.5
2017-03-30T00:52:30.807Z,1018.54
2017-03-30T00:52:40.799Z,1018.54
2017-03-30T00:52:51.130Z,1018.57
2017-03-30T00:53:01.123Z,1018.57
2017-03-30T00:53:11.121Z,1018.55
2017-03-30T00:53:20.779Z,1018.54
2017-03-30T00:53:31.106Z,1018.57
2017-03-30T00:53:41.104Z,1018.56
2017-03-30T00:53:51.101Z,1018.55
2017-03-30T00:54:01.092Z,1018.54
2017-03-30T00:54:11.085Z,1018.54
2017-03-30T00:54:21.082Z,1018.55
2017-03-30T00:54:31.072Z,1018.56
2017-03-30T00:54:41.068Z,1018.55
2017-03-30T00:54:51.064Z,1018.58
2017-03-30T00:55:00.726Z,1018.54
2017-03-30T00:55:10.718Z,1018.48
2017-03-30T00:55:21.048Z,1018.53
2017-03-30T00:55:31.042Z,1018.52
2017-03-30T00:55:41.038Z,1018.49
2017-03-30T00:55:51.033Z,1018.48
2017-03-30T00:56:01.026Z,1018.49
2017-03-30T00:56:11.022Z,1018.53
2017-03-30T00:56:21.370Z,1018.47
2017-03-30T00:56:31.010Z,1018.48
2017-03-30T00:56:41.007Z,1018.5
2017-03-30T00:56:50.997Z,1018.49
2017-03-30T00:57:00.994Z,1018.47
2017-03-30T00:57:11.019Z,1018.5
2017-03-30T00:57:20.648Z,1018.5
2017-03-30T00:57:30.978Z,1018.49
2017-03-30T00:57:41.323Z,1018.45
2017-03-30T00:57:50.963Z,1018.48
2017-03-30T00:58:00.961Z,1018.48
2017-03-30T00:58:10.958Z,1018.43
2017-03-30T00:58:20.614Z,1018.49
2017-03-30T00:58:30.948Z,1018.49
2017-03-30T00:58:40.275Z,1018.45
2017-03-30T00:58:50.931Z,1018.45
2017-03-30T00:59:00.926Z,1018.46
2017-03-30T00:59:10.921Z,1018.47
2017-03-30T00:59:20.917Z,1018.46
2017-03-30T00:59:30.911Z,1018.48
2017-03-30T00:59:40.908Z,1018.47
2017-03-30T00:59:50.568Z,1018.47
2017-03-30T01:00:00.896Z,1018.43
2017-03-30T01:00:10.553Z,1018.42
2017-03-30T01:00:20.891Z,1018.43
2017-03-30T01:00:30.881Z,1018.47
2017-03-30T01:00:40.902Z,1018.46
2017-03-30T01:00:50.870Z,1018.49
2017-03-30T01:01:00.865Z,1018.43
2017-03-30T01:01:10.859Z,1018.42
2017-03-30T01:01:20.517Z,1018.44
2017-03-30T01:01:30.847Z,1018.38
2017-03-30T01:01:40.842Z,1018.39
2017-03-30T01:01:50.844Z,1018.41
2017-03-30T01:02:00.828Z,1018.42
2017-03-30T01:02:10.830Z,1018.43
2017-03-30T01:02:20.822Z,1018.41
2017-03-30T01:02:30.481Z,1018.38
2017-03-30T01:02:40.811Z,1018.43
2017-03-30T01:02:50.806Z,1018.43
2017-03-30T01:03:00.798Z,1018.42
2017-03-30T01:03:10.795Z,1018.43
2017-03-30T01:03:20.787Z,1018.39
2017-03-30T01:03:30.445Z,1018.4
2017-03-30T01:03:40.782Z,1018.39
2017-03-30T01:03:50.775Z,1018.44
2017-03-30T01:04:00.434Z,1018.42
2017-03-30T01:04:11.013Z,1018.39
2017-03-30T01:04:20.424Z,1018.43
2017-03-30T01:04:30.445Z,1018.43
2017-03-30T01:04:40.745Z,1018.42
2017-03-30T01:04:50.741Z,1018.44
2017-03-30T01:05:00.736Z,1018.4
2017-03-30T01:05:10.727Z,1018.44
2017-03-30T01:05:20.723Z,1018.46
2017-03-30T01:05:30.716Z,1018.42
2017-03-30T01:05:40.713Z,1018.42
2017-03-30T01:05:50.707Z,1018.39
2017-03-30T01:06:00.699Z,1018.44
2017-03-30T01:06:10.696Z,1018.46
2017-03-30T01:06:20.692Z,1018.44
2017-03-30T01:06:30.685Z,1018.39
2017-03-30T01:06:40.680Z,1018.41
2017-03-30T01:06:50.671Z,1018.44
2017-03-30T01:07:00.331Z,1018.41
2017-03-30T01:07:10.664Z,1018.45
2017-03-30T01:07:20.660Z,1018.46
2017-03-30T01:07:30.653Z,1018.42
2017-03-30T01:07:40.645Z,1018.42
2017-03-30T01:07:50.640Z,1018.39
2017-03-30T01:08:00.638Z,1018.43
2017-03-30T01:08:10.631Z,1018.44
2017-03-30T01:08:20.623Z,1018.45
2017-03-30T01:08:30.304Z,1018.44
2017-03-30T01:08:40.615Z,1018.44
2017-03-30T01:08:50.276Z,1018.43
2017-03-30T01:08:59.937Z,1018.45
2017-03-30T01:09:10.847Z,1018.43
2017-03-30T01:09:20.595Z,1018.47
2017-03-30T01:09:29.918Z,1018.43
2017-03-30T01:09:40.582Z,1018.46
2017-03-30T01:09:50.575Z,1018.47
2017-03-30T01:10:00.568Z,1018.45
2017-03-30T01:10:10.564Z,1018.45
2017-03-30T01:10:20.560Z,1018.45
2017-03-30T01:10:30.552Z,1018.45
2017-03-30T01:10:40.549Z,1018.48
2017-03-30T01:10:50.542Z,1018.43
2017-03-30T01:11:00.540Z,1018.44
2017-03-30T01:11:10.533Z,1018.49
2017-03-30T01:11:20.524Z,1018.4
2017-03-30T01:11:30.522Z,1018.45
2017-03-30T01:11:40.185Z,1018.43
2017-03-30T01:11:50.511Z,1018.47
2017-03-30T01:12:00.503Z,1018.47
2017-03-30T01:12:10.502Z,1018.45
2017-03-30T01:12:20.497Z,1018.51
2017-03-30T01:12:30.488Z,1018.47
2017-03-30T01:12:39.809Z,1018.47
2017-03-30T01:12:50.480Z,1018.46
2017-03-30T01:13:00.472Z,1018.47
2017-03-30T01:13:10.466Z,1018.46
2017-03-30T01:13:20.463Z,1018.47
2017-03-30T01:13:30.456Z,1018.43
2017-03-30T01:13:40.119Z,1018.47
2017-03-30T01:13:50.111Z,1018.41
2017-03-30T01:14:00.438Z,1018.43
2017-03-30T01:14:10.683Z,1018.48
2017-03-30T01:14:20.428Z,1018.46
2017-03-30T01:14:30.425Z,1018.45
2017-03-30T01:14:40.083Z,1018.48
2017-03-30T01:14:50.414Z,1018.47
2017-03-30T01:15:00.406Z,1018.45
2017-03-30T01:15:10.432Z,1018.49
2017-03-30T01:15:20.192Z,1018.5
2017-03-30T01:15:30.395Z,1018.49
2017-03-30T01:15:40.384Z,1018.44
2017-03-30T01:15:50.042Z,1018.45
2017-03-30T01:16:00.375Z,1018.46
2017-03-30T01:16:10.034Z,1018.45
2017-03-30T01:16:20.367Z,1018.45
2017-03-30T01:16:30.027Z,1018.45
2017-03-30T01:16:40.353Z,1018.46
2017-03-30T01:16:50.346Z,1018.45
2017-03-30T01:17:00.005Z,1018.45
2017-03-30T01:17:10.337Z,1018.45
2017-03-30T01:17:20.332Z,1018.45
2017-03-30T01:17:30.326Z,1018.47
2017-03-30T01:17:40.321Z,1018.45
2017-03-30T01:17:50.317Z,1018.42
2017-03-30T01:17:59.972Z,1018.46
2017-03-30T01:18:10.305Z,1018.41
2017-03-30T01:18:20.301Z,1018.45
2017-03-30T01:18:30.294Z,1018.42
2017-03-30T01:18:39.951Z,1018.45
2017-03-30T01:18:49.946Z,1018.43
2017-03-30T01:18:59.942Z,1018.44
2017-03-30T01:19:10.521Z,1018.48
2017-03-30T01:19:20.268Z,1018.49
2017-03-30T01:19:30.265Z,1018.46
2017-03-30T01:19:40.255Z,1018.44
2017-03-30T01:19:49.916Z,1018.47
2017-03-30T01:20:00.246Z,1018.47
2017-03-30T01:20:09.901Z,1018.46
2017-03-30T01:20:19.898Z,1018.49
2017-03-30T01:20:29.894Z,1018.51
2017-03-30T01:20:40.223Z,1018.48
2017-03-30T01:20:50.251Z,1018.49
2017-03-30T01:21:00.211Z,1018.46
2017-03-30T01:21:10.207Z,1018.45
2017-03-30T01:21:20.198Z,1018.47
2017-03-30T01:21:30.194Z,1018.46
2017-03-30T01:21:40.191Z,1018.44
2017-03-30T01:21:50.192Z,1018.47
2017-03-30T01:22:00.177Z,1018.45
2017-03-30T01:22:10.176Z,1018.4
2017-03-30T01:22:19.835Z,1018.46
2017-03-30T01:22:30.165Z,1018.44
2017-03-30T01:22:39.952Z,1018.44
2017-03-30T01:22:50.154Z,1018.43
2017-03-30T01:23:00.146Z,1018.41
2017-03-30T01:23:09.809Z,1018.38
2017-03-30T01:23:20.135Z,1018.36
2017-03-30T01:23:29.793Z,1018.42
2017-03-30T01:23:40.126Z,1018.43
2017-03-30T01:23:49.782Z,1018.41
2017-03-30T01:24:00.113Z,1018.43
2017-03-30T01:24:09.774Z,1018.41
2017-03-30T01:24:20.101Z,1018.39
2017-03-30T01:24:30.100Z,1018.4
2017-03-30T01:24:40.095Z,1018.4
2017-03-30T01:24:50.084Z,1018.41
2017-03-30T01:25:00.083Z,1018.41
2017-03-30T01:25:10.074Z,1018.39
2017-03-30T01:25:20.086Z,1018.43
2017-03-30T01:25:30.067Z,1018.42
2017-03-30T01:25:40.062Z,1018.41
2017-03-30T01:25:50.057Z,1018.44
2017-03-30T01:26:00.049Z,1018.44
2017-03-30T01:26:09.711Z,1018.4
2017-03-30T01:26:20.043Z,1018.43
2017-03-30T01:26:30.031Z,1018.42
2017-03-30T01:26:40.027Z,1018.5
2017-03-30T01:26:49.686Z,1018.46
2017-03-30T01:27:00.014Z,1018.42
2017-03-30T01:27:10.012Z,1018.47
2017-03-30T01:27:20.004Z,1018.44
2017-03-30T01:27:29.998Z,1018.43
2017-03-30T01:27:39.995Z,1018.42
2017-03-30T01:27:49.988Z,1018.43
2017-03-30T01:27:59.983Z,1018.43
2017-03-30T01:28:09.975Z,1018.44
2017-03-30T01:28:19.975Z,1018.46
2017-03-30T01:28:29.969Z,1018.44
2017-03-30T01:28:39.959Z,1018.46
2017-03-30T01:28:49.624Z,1018.43
2017-03-30T01:28:59.949Z,1018.44
2017-03-30T01:29:09.611Z,1018.44
2017-03-30T01:29:19.938Z,1018.41
2017-03-30T01:29:29.936Z,1018.44
2017-03-30T01:29:39.595Z,1018.43
2017-03-30T01:29:49.923Z,1018.42
2017-03-30T01:29:59.919Z,1018.43
2017-03-30T01:30:09.577Z,1018.49
2017-03-30T01:30:19.912Z,1018.48
2017-03-30T01:30:29.567Z,1018.5
2017-03-30T01:30:39.894Z,1018.46
2017-03-30T01:30:49.891Z,1018.43
2017-03-30T01:30:59.884Z,1018.41
2017-03-30T01:31:09.545Z,1018.42
2017-03-30T01:31:19.538Z,1018.45
2017-03-30T01:31:29.891Z,1018.43
2017-03-30T01:31:39.864Z,1018.43
2017-03-30T01:31:49.859Z,1018.44
2017-03-30T01:31:59.518Z,1018.41
2017-03-30T01:32:09.846Z,1018.47
2017-03-30T01:32:19.864Z,1018.43
2017-03-30T01:32:29.502Z,1018.45
2017-03-30T01:32:39.833Z,1018.46
2017-03-30T01:32:49.826Z,1018.44
2017-03-30T01:32:59.488Z,1018.46
2017-03-30T01:33:09.480Z,1018.43
2017-03-30T01:33:19.472Z,1018.45
2017-03-30T01:33:29.804Z,1018.44
2017-03-30T01:33:39.799Z,1018.52
2017-03-30T01:33:49.790Z,1018.47
2017-03-30T01:33:59.451Z,1018.47
2017-03-30T01:34:09.447Z,1018.42
2017-03-30T01:34:19.779Z,1018.47
2017-03-30T01:34:29.771Z,1018.44
2017-03-30T01:34:39.766Z,1018.49
2017-03-30T01:34:49.758Z,1018.48
2017-03-30T01:34:59.753Z,1018.46
2017-03-30T01:35:09.415Z,1018.47
2017-03-30T01:35:19.742Z,1018.44
2017-03-30T01:35:29.739Z,1018.42
2017-03-30T01:35:39.400Z,1018.42
2017-03-30T01:35:49.728Z,1018.5
2017-03-30T01:35:59.725Z,1018.47
2017-03-30T01:36:09.384Z,1018.47
2017-03-30T01:36:19.404Z,1018.49
2017-03-30T01:36:29.372Z,1018.44
2017-03-30T01:36:39.700Z,1018.43
2017-03-30T01:36:49.696Z,1018.48
2017-03-30T01:36:59.688Z,1018.45
2017-03-30T01:37:09.711Z,1018.47
2017-03-30T01:37:19.679Z,1018.48
2017-03-30T01:37:29.676Z,1018.42
2017-03-30T01:37:39.467Z,1018.47
2017-03-30T01:37:49.663Z,1018.45
2017-03-30T01:37:59.659Z,1018.49
2017-03-30T01:38:09.315Z,1018.48
2017-03-30T01:38:19.309Z,1018.45
2017-03-30T01:38:28.970Z,1018.44
2017-03-30T01:38:40.022Z,1018.48
2017-03-30T01:38:49.627Z,1018.43
2017-03-30T01:38:59.625Z,1018.47
2017-03-30T01:39:09.868Z,1018.48
2017-03-30T01:39:19.618Z,1018.44
2017-03-30T01:39:29.274Z,1018.42
2017-03-30T01:39:39.606Z,1018.42
2017-03-30T01:39:49.600Z,1018.44
2017-03-30T01:39:59.594Z,1018.4
2017-03-30T01:40:09.255Z,1018.41
2017-03-30T01:40:19.581Z,1018.43
2017-03-30T01:40:29.578Z,1018.43
2017-03-30T01:40:39.572Z,1018.5
2017-03-30T01:40:49.567Z,1018.46
2017-03-30T01:40:59.562Z,1018.47
2017-03-30T01:41:09.556Z,1018.46
2017-03-30T01:41:19.212Z,1018.43
2017-03-30T01:41:29.206Z,1018.43
2017-03-30T01:41:39.537Z,1018.45
2017-03-30T01:41:49.533Z,1018.42
2017-03-30T01:41:59.527Z,1018.46
2017-03-30T01:42:09.188Z,1018.47
2017-03-30T01:42:19.518Z,1018.37
2017-03-30T01:42:29.513Z,1018.4
2017-03-30T01:42:39.507Z,1018.41
2017-03-30T01:42:49.503Z,1018.45
2017-03-30T01:42:59.493Z,1018.42
2017-03-30T01:43:09.155Z,1018.41
2017-03-30T01:43:19.484Z,1018.4
2017-03-30T01:43:29.481Z,1018.46
2017-03-30T01:43:39.499Z,1018.42
2017-03-30T01:43:49.471Z,1018.47
2017-03-30T01:43:59.462Z,1018.39
2017-03-30T01:44:09.370Z,1018.43
2017-03-30T01:44:19.119Z,1018.43
2017-03-30T01:44:29.447Z,1018.39
2017-03-30T01:44:39.438Z,1018.42
2017-03-30T01:44:49.437Z,1018.41
2017-03-30T01:44:59.093Z,1018.42
2017-03-30T01:45:09.090Z,1018.41
2017-03-30T01:45:19.420Z,1018.46
2017-03-30T01:45:29.417Z,1018.41
2017-03-30T01:45:39.407Z,1018.39
2017-03-30T01:45:49.068Z,1018.41
2017-03-30T01:45:59.399Z,1018.44
2017-03-30T01:46:09.387Z,1018.39
2017-03-30T01:46:19.388Z,1018.39
2017-03-30T01:46:29.048Z,1018.39
2017-03-30T01:46:39.379Z,1018.41
2017-03-30T01:46:49.371Z,1018.41
2017-03-30T01:46:59.363Z,1018.44
2017-03-30T01:47:09.360Z,1018.38
2017-03-30T01:47:19.352Z,1018.37
2017-03-30T01:47:29.011Z,1018.41
2017-03-30T01:47:39.346Z,1018.41
2017-03-30T01:47:49.337Z,1018.37
2017-03-30T01:47:59.337Z,1018.41
2017-03-30T01:48:09.322Z,1018.37
2017-03-30T01:48:19.323Z,1018.4
2017-03-30T01:48:28.979Z,1018.4
2017-03-30T01:48:39.680Z,1018.41
2017-03-30T01:48:49.304Z,1018.41
2017-03-30T01:48:59.301Z,1018.35
2017-03-30T01:49:09.545Z,1018.39
2017-03-30T01:49:19.292Z,1018.38
2017-03-30T01:49:29.281Z,1018.39
2017-03-30T01:49:39.274Z,1018.36
2017-03-30T01:49:49.622Z,1018.42
2017-03-30T01:49:59.264Z,1018.44
2017-03-30T01:50:09.260Z,1018.36
2017-03-30T01:50:19.255Z,1018.36
2017-03-30T01:50:29.271Z,1018.41
2017-03-30T01:50:39.246Z,1018.42
2017-03-30T01:50:49.237Z,1018.36
2017-03-30T01:50:59.232Z,1018.43
2017-03-30T01:51:09.231Z,1018.39
2017-03-30T01:51:19.223Z,1018.39
2017-03-30T01:51:28.884Z,1018.38
2017-03-30T01:51:38.543Z,1018.38
2017-03-30T01:51:49.207Z,1018.42
2017-03-30T01:51:59.569Z,1018.42
2017-03-30T01:52:08.864Z,1018.36
2017-03-30T01:52:18.855Z,1018.4
2017-03-30T01:52:28.853Z,1018.42
2017-03-30T01:52:39.177Z,1018.41
2017-03-30T01:52:49.175Z,1018.41
2017-03-30T01:52:59.168Z,1018.44
2017-03-30T01:53:09.164Z,1018.41
2017-03-30T01:53:19.156Z,1018.35
2017-03-30T01:53:28.820Z,1018.36
2017-03-30T01:53:39.146Z,1018.4
2017-03-30T01:53:49.499Z,1018.41
2017-03-30T01:53:58.802Z,1018.38
2017-03-30T01:54:09.488Z,1018.41
2017-03-30T01:54:19.124Z,1018.38
2017-03-30T01:54:29.119Z,1018.41
2017-03-30T01:54:39.113Z,1018.42
2017-03-30T01:54:49.109Z,1018.43
2017-03-30T01:54:58.770Z,1018.42
2017-03-30T01:55:09.095Z,1018.4
2017-03-30T01:55:19.092Z,1018.42
2017-03-30T01:55:29.089Z,1018.41
2017-03-30T01:55:39.083Z,1018.41
2017-03-30T01:55:49.076Z,1018.41
2017-03-30T01:55:59.071Z,1018.4
2017-03-30T01:56:08.732Z,1018.38
2017-03-30T01:56:19.061Z,1018.46
2017-03-30T01:56:29.054Z,1018.37
2017-03-30T01:56:39.053Z,1018.41
2017-03-30T01:56:49.044Z,1018.39
2017-03-30T01:56:59.059Z,1018.37
2017-03-30T01:57:08.697Z,1018.47
2017-03-30T01:57:19.026Z,1018.38
2017-03-30T01:57:29.019Z,1018.4
2017-03-30T01:57:39.016Z,1018.38
2017-03-30T01:57:49.013Z,1018.42
2017-03-30T01:57:59.008Z,1018.41
2017-03-30T01:58:09.000Z,1018.34
2017-03-30T01:58:18.662Z,1018.38
2017-03-30T01:58:28.989Z,1018.41
2017-03-30T01:58:38.982Z,1018.42
2017-03-30T01:58:48.976Z,1018.39
2017-03-30T01:58:58.978Z,1018.35
2017-03-30T01:59:08.969Z,1018.39
2017-03-30T01:59:18.962Z,1018.39
2017-03-30T01:59:29.311Z,1018.39
2017-03-30T01:59:38.951Z,1018.42
2017-03-30T01:59:48.946Z,1018.39
2017-03-30T01:59:58.945Z,1018.36
2017-03-30T02:00:08.937Z,1018.4
2017-03-30T02:00:18.594Z,1018.39
2017-03-30T02:00:28.923Z,1018.4
2017-03-30T02:00:38.585Z,1018.42
2017-03-30T02:00:48.913Z,1018.39
2017-03-30T02:00:58.910Z,1018.44
2017-03-30T02:01:08.903Z,1018.42